createdAt,value
2015-11-10T00:00:17.937Z,1009.7
2015-11-10T00:01:17.877Z,1009.7
2015-11-10T00:02:17.833Z,1009.6
2015-11-10T00:03:17.976Z,1009.6
2015-11-10T00:04:17.728Z,1009.5
2015-11-10T00:05:17.669Z,1009.6
2015-11-10T00:06:17.625Z,1009.6
2015-11-10T00:07:17.768Z,1009.6
2015-11-10T00:08:17.521Z,1009.5
2015-11-10T00:09:17.477Z,1009.6
2015-11-10T00:10:17.417Z,1009.4
2015-11-10T00:11:17.388Z,1009.5
2015-11-10T00:12:17.516Z,1009.6
2015-11-10T00:13:17.299Z,1009.7
2015-11-10T00:14:17.444Z,1009.6
2015-11-10T00:15:17.165Z,1009.5
2015-11-10T00:16:17.105Z,1009.5
2015-11-10T00:17:17.046Z,1009.5
2015-11-10T00:18:17.001Z,1009.6
2015-11-10T00:19:16.972Z,1009.5
2015-11-10T00:20:16.944Z,1009.5
2015-11-10T00:21:16.853Z,1009.4
2015-11-10T00:22:16.809Z,1009.4
2015-11-10T00:23:16.749Z,1009.4
2015-11-10T00:24:16.705Z,1009.4
2015-11-10T00:25:16.638Z,1009.5
2015-11-10T00:26:16.595Z,1009.4
2015-11-10T00:27:16.550Z,1009.3
2015-11-10T00:28:16.491Z,1009.4
2015-11-10T00:29:16.430Z,1009.4
2015-11-10T00:30:16.386Z,1009.3
2015-11-10T00:31:16.781Z,1009.5
2015-11-10T00:32:16.283Z,1009.3
2015-11-10T00:33:16.222Z,1009.4
2015-11-10T00:34:16.194Z,1009.3
2015-11-10T00:35:16.135Z,1009.3
2015-11-10T00:36:16.091Z,1009.2
2015-11-10T00:37:16.234Z,1009.2
2015-11-10T00:38:15.986Z,1009.2
2015-11-10T00:39:15.927Z,1009.2
2015-11-10T00:40:15.882Z,1009.1
2015-11-10T00:41:15.822Z,1009.2
2015-11-10T00:42:15.763Z,1009.1
2015-11-10T00:43:15.719Z,1009.1
2015-11-10T00:44:15.894Z,1009
2015-11-10T00:45:15.646Z,1009.2
2015-11-10T00:46:15.774Z,1009
2015-11-10T00:47:15.524Z,1009
2015-11-10T00:48:15.464Z,1009
2015-11-10T00:49:15.405Z,1009
2015-11-10T00:50:15.360Z,1009
2015-11-10T00:51:15.301Z,1009
2015-11-10T00:52:15.257Z,1009
2015-11-10T00:53:15.213Z,1009.1
2015-11-10T00:54:15.168Z,1009.1
2015-11-10T00:55:15.108Z,1009
2015-11-10T00:56:15.049Z,1009
2015-11-10T00:57:14.988Z,1009
2015-11-10T00:58:14.934Z,1009.1
2015-11-10T00:59:14.906Z,1009
2015-11-10T01:00:14.829Z,1009
2015-11-10T01:01:14.802Z,1009.1
2015-11-10T01:02:14.726Z,1008.9
2015-11-10T01:03:14.681Z,1009.1
2015-11-10T01:04:14.623Z,1008.9
2015-11-10T01:05:14.828Z,1009
2015-11-10T01:06:14.517Z,1009
2015-11-10T01:07:14.489Z,1009
2015-11-10T01:08:14.431Z,1008.9
2015-11-10T01:09:14.402Z,1008.9
2015-11-10T01:10:14.326Z,1009
2015-11-10T01:11:14.281Z,1009
2015-11-10T01:12:14.425Z,1009.1
2015-11-10T01:13:14.178Z,1009.1
2015-11-10T01:14:14.134Z,1009.1
2015-11-10T01:15:14.075Z,1009.1
2015-11-10T01:16:14.045Z,1009.1
2015-11-10T01:17:13.970Z,1009.2
2015-11-10T01:18:13.926Z,1008.9
2015-11-10T01:19:13.867Z,1009.1
2015-11-10T01:20:13.822Z,1009.2
2015-11-10T01:21:13.762Z,1009.1
2015-11-10T01:22:13.733Z,1009.2
2015-11-10T01:23:14.315Z,1009.2
2015-11-10T01:24:13.614Z,1009.1
2015-11-10T01:25:13.555Z,1009.2
2015-11-10T01:26:13.511Z,1009.1
2015-11-10T01:27:13.467Z,1009.2
2015-11-10T01:28:13.423Z,1009.3
2015-11-10T01:29:13.364Z,1009.3
2015-11-10T01:30:13.319Z,1009.2
2015-11-10T01:31:13.259Z,1009.1
2015-11-10T01:32:13.214Z,1009.2
2015-11-10T01:33:13.155Z,1009.2
2015-11-10T01:34:13.111Z,1009
2015-11-10T01:35:13.048Z,1009
2015-11-10T01:36:13.191Z,1009.1
2015-11-10T01:37:12.975Z,1009.1
2015-11-10T01:38:12.900Z,1009
2015-11-10T01:39:12.841Z,1008.9
2015-11-10T01:40:13.016Z,1009
2015-11-10T01:41:12.736Z,1009
2015-11-10T01:42:12.677Z,1008.9
2015-11-10T01:43:12.102Z,1008.9
2015-11-10T01:44:12.588Z,1008.8
2015-11-10T01:45:12.529Z,1008.8
2015-11-10T01:46:12.485Z,1008.7
2015-11-10T01:47:12.425Z,1008.8
2015-11-10T01:48:12.380Z,1008.6
2015-11-10T01:49:12.321Z,1008.7
2015-11-10T01:50:12.277Z,1008.6
2015-11-10T01:51:12.233Z,1008.7
2015-11-10T01:52:12.391Z,1008.7
2015-11-10T01:53:12.129Z,1008.6
2015-11-10T01:54:12.069Z,1008.6
2015-11-10T01:55:12.041Z,1008.5
2015-11-10T01:56:11.965Z,1008.5
2015-11-10T01:57:12.140Z,1008.6
2015-11-10T01:58:11.866Z,1008.6
2015-11-10T01:59:12.009Z,1008.4
2015-11-10T02:00:11.778Z,1008.4
2015-11-10T02:01:11.701Z,1008.5
2015-11-10T02:02:11.659Z,1008.6
2015-11-10T02:03:11.614Z,1008.4
2015-11-10T02:04:11.429Z,1008.3
2015-11-10T02:05:11.510Z,1008.5
2015-11-10T02:06:11.455Z,1008.5
2015-11-10T02:07:11.411Z,1008.4
2015-11-10T02:08:11.351Z,1008.4
2015-11-10T02:09:11.306Z,1008.4
2015-11-10T02:10:11.481Z,1008.5
2015-11-10T02:11:11.203Z,1008.5
2015-11-10T02:12:11.347Z,1008.4
2015-11-10T02:13:11.100Z,1008.5
2015-11-10T02:14:11.039Z,1008.6
2015-11-10T02:15:10.980Z,1008.7
2015-11-10T02:16:10.935Z,1008.6
2015-11-10T02:17:10.876Z,1008.4
2015-11-10T02:18:10.847Z,1008.5
2015-11-10T02:20:48.134Z,1008.5
2015-11-10T02:21:48.074Z,1008.6
2015-11-10T02:22:48.046Z,1008.5
2015-11-10T02:23:47.970Z,1008.6
2015-11-10T02:24:47.926Z,1008.4
2015-11-10T02:25:48.100Z,1008.4
2015-11-10T02:26:47.822Z,1008.5
2015-11-10T02:27:47.794Z,1008.6
2015-11-10T02:28:47.718Z,1008.5
2015-11-10T02:29:47.674Z,1008.5
2015-11-10T02:30:47.614Z,1008.5
2015-11-10T02:31:47.570Z,1008.5
2015-11-10T02:32:47.713Z,1008.5
2015-11-10T02:33:47.466Z,1008.4
2015-11-10T02:34:47.407Z,1008.5
2015-11-10T02:35:47.363Z,1008.4
2015-11-10T02:36:47.303Z,1008.4
2015-11-10T02:37:47.258Z,1008.4
2015-11-10T02:38:47.215Z,1008.5
2015-11-10T02:39:46.388Z,1008.3
2015-11-10T02:40:47.110Z,1008.5
2015-11-10T02:41:47.051Z,1008.3
2015-11-10T02:42:47.022Z,1008.3
2015-11-10T02:43:46.963Z,1008.3
2015-11-10T02:44:46.902Z,1008.3
2015-11-10T02:45:46.859Z,1008.3
2015-11-10T02:46:46.877Z,1008.1
2015-11-10T02:47:46.755Z,1008.3
2015-11-10T02:48:46.695Z,1008.3
2015-11-10T02:49:46.651Z,1008.2
2015-11-10T02:50:46.590Z,1008.3
2015-11-10T02:51:46.546Z,1008.3
2015-11-10T02:52:46.487Z,1008.3
2015-11-10T02:53:46.443Z,1008.2
2015-11-10T02:54:45.618Z,1008.1
2015-11-10T02:55:46.339Z,1008.2
2015-11-10T02:56:46.279Z,1008.1
2015-11-10T02:57:46.235Z,1008.1
2015-11-10T02:58:46.175Z,1008
2015-11-10T02:59:46.131Z,1008
2015-11-10T03:00:46.087Z,1008.1
2015-11-10T03:01:46.028Z,1008
2015-11-10T03:02:45.983Z,1007.9
2015-11-10T03:03:45.924Z,1008.2
2015-11-10T03:04:45.879Z,1008.2
2015-11-10T03:05:45.820Z,1008.3
2015-11-10T03:06:45.775Z,1008.3
2015-11-10T03:07:45.700Z,1008.2
2015-11-10T03:08:45.656Z,1008.2
2015-11-10T03:09:44.861Z,1008.1
2015-11-10T03:10:45.553Z,1008.2
2015-11-10T03:11:45.508Z,1008
2015-11-10T03:12:45.447Z,1008
2015-11-10T03:13:45.403Z,1008.2
2015-11-10T03:14:45.359Z,1008.2
2015-11-10T03:15:45.300Z,1008.1
2015-11-10T03:16:45.239Z,1008.1
2015-11-10T03:17:45.196Z,1008.1
2015-11-10T03:18:45.133Z,1008.2
2015-11-10T03:19:45.089Z,1008.1
2015-11-10T03:20:45.014Z,1008.2
2015-11-10T03:21:44.985Z,1008.2
2015-11-10T03:22:45.113Z,1008.3
2015-11-10T03:23:44.881Z,1008.3
2015-11-10T03:24:44.806Z,1008.2
2015-11-10T03:25:44.778Z,1008.3
2015-11-10T03:26:44.921Z,1008.2
2015-11-10T03:27:44.674Z,1008.3
2015-11-10T03:28:44.629Z,1008.2
2015-11-10T03:29:44.585Z,1008.4
2015-11-10T03:30:44.541Z,1008.3
2015-11-10T03:31:44.465Z,1008.3
2015-11-10T03:32:44.437Z,1008.2
2015-11-10T03:33:44.221Z,1008.1
2015-11-10T03:34:44.333Z,1008.1
2015-11-10T03:35:44.273Z,1008.2
2015-11-10T03:36:44.416Z,1008.1
2015-11-10T03:37:44.169Z,1008.2
2015-11-10T03:38:44.125Z,1008.2
2015-11-10T03:39:44.096Z,1008
2015-11-10T03:40:44.224Z,1008
2015-11-10T03:41:43.962Z,1008
2015-11-10T03:42:43.918Z,1008.1
2015-11-10T03:43:43.889Z,1008
2015-11-10T03:44:43.814Z,1008
2015-11-10T03:45:43.801Z,1008
2015-11-10T03:46:43.710Z,1008.1
2015-11-10T03:47:43.665Z,1008
2015-11-10T03:48:43.622Z,1008
2015-11-10T03:49:43.562Z,1008
2015-11-10T03:50:43.501Z,1008.1
2015-11-10T03:51:43.457Z,1008
2015-11-10T03:52:43.257Z,1008
2015-11-10T03:53:43.354Z,1008.1
2015-11-10T03:54:43.325Z,1008.1
2015-11-10T03:55:43.250Z,1008
2015-11-10T03:56:43.206Z,1008
2015-11-10T03:57:43.146Z,1008.1
2015-11-10T03:58:43.101Z,1008.1
2015-11-10T03:59:43.058Z,1008.1
2015-11-10T04:00:42.998Z,1008.1
2015-11-10T04:01:42.953Z,1008.1
2015-11-10T04:02:42.176Z,1008.1
2015-11-10T04:03:42.850Z,1008.1
2015-11-10T04:04:42.790Z,1008.1
2015-11-10T04:05:42.762Z,1008.2
2015-11-10T04:06:42.687Z,1008.1
2015-11-10T04:07:42.658Z,1008.2
2015-11-10T04:08:42.598Z,1008.1
2015-11-10T04:09:42.539Z,1008.1
2015-11-10T04:10:42.495Z,1008.1
2015-11-10T04:11:42.435Z,1008.1
2015-11-10T04:12:42.390Z,1008.1
2015-11-10T04:13:42.347Z,1008.2
2015-11-10T04:14:42.302Z,1008.1
2015-11-10T04:15:42.239Z,1008.2
2015-11-10T04:16:42.195Z,1008.1
2015-11-10T04:17:42.136Z,1008.3
2015-11-10T04:18:42.091Z,1008.3
2015-11-10T04:19:42.266Z,1008.4
2015-11-10T04:20:41.972Z,1008.2
2015-11-10T04:21:41.928Z,1008.3
2015-11-10T04:22:41.899Z,1008.2
2015-11-10T04:23:41.824Z,1008.3
2015-11-10T04:24:41.874Z,1008.3
2015-11-10T04:25:41.923Z,1008.3
2015-11-10T04:26:42.051Z,1008.3
2015-11-10T04:27:41.663Z,1008.3
2015-11-10T04:28:41.713Z,1008.5
2015-11-10T04:29:41.527Z,1008.3
2015-11-10T04:30:41.483Z,1008.4
2015-11-10T04:31:41.658Z,1008.3
2015-11-10T04:32:41.380Z,1008.3
2015-11-10T04:33:41.539Z,1008.2
2015-11-10T04:34:41.277Z,1008.3
2015-11-10T04:35:41.216Z,1008.3
2015-11-10T04:36:41.313Z,1008.3
2015-11-10T04:37:41.127Z,1008.4
2015-11-10T04:38:41.099Z,1008.3
2015-11-10T04:39:41.024Z,1008.3
2015-11-10T04:40:40.963Z,1008.3
2015-11-10T04:41:40.935Z,1008.2
2015-11-10T04:42:40.876Z,1008.3
2015-11-10T04:43:40.816Z,1008.2
2015-11-10T04:44:40.787Z,1008.4
2015-11-10T04:45:40.947Z,1008.2
2015-11-10T04:46:40.652Z,1008.2
2015-11-10T04:47:40.608Z,1008.2
2015-11-10T04:48:40.565Z,1008.3
2015-11-10T04:49:40.521Z,1008.2
2015-11-10T04:50:40.460Z,1008.3
2015-11-10T04:51:40.604Z,1008.2
2015-11-10T04:52:40.356Z,1008.3
2015-11-10T04:53:40.437Z,1008.1
2015-11-10T04:54:40.502Z,1008.1
2015-11-10T04:55:40.520Z,1008.2
2015-11-10T04:56:40.164Z,1008.3
2015-11-10T04:57:40.104Z,1008.3
2015-11-10T04:58:40.060Z,1008.3
2015-11-10T04:59:40.001Z,1008.2
2015-11-10T05:00:39.957Z,1008.2
2015-11-10T05:01:39.896Z,1008.2
2015-11-10T05:02:39.853Z,1008.3
2015-11-10T05:03:39.824Z,1008.3
2015-11-10T05:04:39.749Z,1008.5
2015-11-10T05:05:39.720Z,1008.3
2015-11-10T05:06:39.675Z,1008.3
2015-11-10T05:07:39.616Z,1008.3
2015-11-10T05:08:39.540Z,1008.3
2015-11-10T05:09:39.497Z,1008.3
2015-11-10T05:10:39.686Z,1008.3
2015-11-10T05:11:39.409Z,1008.4
2015-11-10T05:12:39.348Z,1008.4
2015-11-10T05:13:39.286Z,1008.3
2015-11-10T05:14:39.258Z,1008.2
2015-11-10T05:15:39.182Z,1008.3
2015-11-10T05:16:39.356Z,1008.4
2015-11-10T05:17:39.094Z,1008.5
2015-11-10T05:18:39.050Z,1008.3
2015-11-10T05:19:38.974Z,1008.3
2015-11-10T05:20:38.946Z,1008.3
2015-11-10T05:21:38.886Z,1008.3
2015-11-10T05:22:38.841Z,1008.5
2015-11-10T05:23:38.783Z,1008.3
2015-11-10T05:24:38.738Z,1008.4
2015-11-10T05:25:38.677Z,1008.3
2015-11-10T05:26:38.634Z,1008.5
2015-11-10T05:27:38.575Z,1008.4
2015-11-10T05:28:38.530Z,1008.5
2015-11-10T05:29:38.470Z,1008.4
2015-11-10T05:30:38.427Z,1008.4
2015-11-10T05:31:38.617Z,1008.3
2015-11-10T05:32:38.557Z,1008.5
2015-11-10T05:33:38.278Z,1008.6
2015-11-10T05:34:38.219Z,1008.5
2015-11-10T05:35:38.174Z,1008.4
2015-11-10T05:36:38.114Z,1008.4
2015-11-10T05:37:38.070Z,1008.3
2015-11-10T05:38:38.026Z,1008.5
2015-11-10T05:39:37.966Z,1008.5
2015-11-10T05:40:37.922Z,1008.4
2015-11-10T05:41:38.050Z,1008.4
2015-11-10T05:42:38.053Z,1008.4
2015-11-10T05:43:37.743Z,1008.4
2015-11-10T05:44:37.699Z,1008.3
2015-11-10T05:45:37.654Z,1008.5
2015-11-10T05:46:37.799Z,1008.5
2015-11-10T05:47:37.785Z,1008.5
2015-11-10T05:48:37.507Z,1008.6
2015-11-10T05:49:37.431Z,1008.6
2015-11-10T05:50:37.387Z,1008.7
2015-11-10T05:51:37.343Z,1008.5
2015-11-10T05:52:37.737Z,1008.5
2015-11-10T05:53:37.458Z,1008.6
2015-11-10T05:54:37.413Z,1008.6
2015-11-10T05:55:37.134Z,1008.5
2015-11-10T05:56:37.090Z,1008.6
2015-11-10T05:57:37.031Z,1008.4
2015-11-10T05:58:37.086Z,1008.6
2015-11-10T05:59:36.925Z,1008.3
2015-11-10T06:00:36.881Z,1008.5
2015-11-10T06:01:36.821Z,1008.5
2015-11-10T06:02:36.042Z,1008.5
2015-11-10T06:03:36.717Z,1008.5
2015-11-10T06:04:36.688Z,1008.5
2015-11-10T06:05:36.629Z,1008.6
2015-11-10T06:06:36.600Z,1008.7
2015-11-10T06:07:36.509Z,1008.5
2015-11-10T06:08:36.652Z,1008.5
2015-11-10T06:09:36.420Z,1008.5
2015-11-10T06:10:36.361Z,1008.5
2015-11-10T06:11:36.332Z,1008.5
2015-11-10T06:12:36.460Z,1008.5
2015-11-10T06:13:36.210Z,1008.6
2015-11-10T06:14:36.166Z,1008.5
2015-11-10T06:15:36.106Z,1008.5
2015-11-10T06:16:36.061Z,1008.7
2015-11-10T06:17:36.002Z,1008.7
2015-11-10T06:18:35.974Z,1008.9
2015-11-10T06:19:36.101Z,1008.9
2015-11-10T06:20:35.104Z,1008.8
2015-11-10T06:21:35.794Z,1008.9
2015-11-10T06:22:35.766Z,1009
2015-11-10T06:23:35.894Z,1009
2015-11-10T06:24:35.631Z,1009
2015-11-10T06:25:35.602Z,1009
2015-11-10T06:26:35.557Z,1009
2015-11-10T06:27:35.686Z,1009.1
2015-11-10T06:28:35.469Z,1009
2015-11-10T06:29:35.394Z,1009.1
2015-11-10T06:30:35.334Z,1009
2015-11-10T06:31:35.291Z,1009.1
2015-11-10T06:32:35.247Z,1009
2015-11-10T06:33:35.186Z,1009.1
2015-11-10T06:34:35.126Z,1009.2
2015-11-10T06:35:35.082Z,1009.1
2015-11-10T06:36:35.023Z,1009.1
2015-11-10T06:37:34.978Z,1009.1
2015-11-10T06:38:34.934Z,1009.3
2015-11-10T06:39:35.109Z,1009.3
2015-11-10T06:40:34.830Z,1009.4
2015-11-10T06:41:34.787Z,1009.4
2015-11-10T06:42:34.726Z,1009.3
2015-11-10T06:43:34.683Z,1009.3
2015-11-10T06:44:34.466Z,1009.4
2015-11-10T06:45:34.579Z,1009.4
2015-11-10T06:46:34.535Z,1009.3
2015-11-10T06:47:34.474Z,1009.3
2015-11-10T06:48:34.634Z,1009.2
2015-11-10T06:49:34.387Z,1009.4
2015-11-10T06:50:34.326Z,1009.4
2015-11-10T06:51:34.282Z,1009.5
2015-11-10T06:52:34.223Z,1009.4
2015-11-10T06:53:34.163Z,1009.5
2015-11-10T06:54:34.118Z,1009.4
2015-11-10T06:55:34.075Z,1009.5
2015-11-10T06:56:34.031Z,1009.5
2015-11-10T06:57:33.970Z,1009.5
2015-11-10T06:58:33.911Z,1009.4
2015-11-10T06:59:33.867Z,1009.7
2015-11-10T07:00:33.823Z,1009.6
2015-11-10T07:01:33.763Z,1009.7
2015-11-10T07:02:33.719Z,1009.6
2015-11-10T07:03:33.675Z,1009.8
2015-11-10T07:04:33.615Z,1009.5
2015-11-10T07:05:33.556Z,1009.7
2015-11-10T07:06:33.511Z,1009.6
2015-11-10T07:07:33.701Z,1009.7
2015-11-10T07:08:32.861Z,1009.8
2015-11-10T07:09:33.363Z,1009.8
2015-11-10T07:11:33.243Z,1009.8
2015-11-10T07:12:33.199Z,1009.8
2015-11-10T07:13:33.152Z,1009.9
2015-11-10T07:14:33.108Z,1009.9
2015-11-10T07:15:33.048Z,1010
2015-11-10T07:16:33.004Z,1010
2015-11-10T07:17:32.960Z,1010.1
2015-11-10T07:18:32.931Z,1010
2015-11-10T07:19:32.856Z,1010.1
2015-11-10T07:20:32.655Z,1009.9
2015-11-10T07:21:32.814Z,1010
2015-11-10T07:22:32.692Z,1009.9
2015-11-10T07:23:32.649Z,1010.1
2015-11-10T07:24:32.604Z,1010
2015-11-10T07:25:32.560Z,1010.1
2015-11-10T07:26:32.499Z,1010
2015-11-10T07:27:32.440Z,1009.9
2015-11-10T07:28:32.396Z,1010
2015-11-10T07:29:32.351Z,1010
2015-11-10T07:30:32.308Z,1010
2015-11-10T07:31:32.248Z,1009.9
2015-11-10T07:32:32.188Z,1009.9
2015-11-10T07:33:32.129Z,1010
2015-11-10T07:34:32.084Z,1009.9
2015-11-10T07:35:32.274Z,1009.9
2015-11-10T07:36:31.980Z,1009.9
2015-11-10T07:37:31.937Z,1009.9
2015-11-10T07:38:31.877Z,1010
2015-11-10T07:39:31.833Z,1009.9
2015-11-10T07:40:32.023Z,1009.8
2015-11-10T07:41:31.728Z,1009.9
2015-11-10T07:42:31.684Z,1009.9
2015-11-10T07:43:31.624Z,1009.9
2015-11-10T07:44:31.581Z,1009.9
2015-11-10T07:45:31.521Z,1009.8
2015-11-10T07:46:31.476Z,1009.9
2015-11-10T07:47:31.432Z,1009.9
2015-11-10T07:48:31.373Z,1009.9
2015-11-10T07:49:31.312Z,1009.8
2015-11-10T07:50:31.269Z,1009.8
2015-11-10T07:51:31.225Z,1009.6
2015-11-10T07:52:31.181Z,1009.8
2015-11-10T07:53:31.121Z,1009.7
2015-11-10T07:54:31.076Z,1009.7
2015-11-10T07:55:31.032Z,1009.8
2015-11-10T07:56:30.956Z,1009.7
2015-11-10T07:57:31.116Z,1009.7
2015-11-10T07:58:30.869Z,1009.6
2015-11-10T07:59:30.809Z,1009.7
2015-11-10T08:00:30.765Z,1009.6
2015-11-10T08:01:30.705Z,1009.6
2015-11-10T08:02:30.659Z,1009.7
2015-11-10T08:03:30.586Z,1009.6
2015-11-10T08:04:30.732Z,1009.7
2015-11-10T08:05:30.472Z,1009.6
2015-11-10T08:06:30.632Z,1009.5
2015-11-10T08:07:30.342Z,1009.6
2015-11-10T08:08:30.293Z,1009.6
2015-11-10T08:09:30.330Z,1009.6
2015-11-10T08:10:29.430Z,1009.5
2015-11-10T08:11:30.032Z,1009.5
2015-11-10T08:12:30.078Z,1009.7
2015-11-10T08:13:30.017Z,1009.7
2015-11-10T08:14:29.955Z,1009.6
2015-11-10T08:15:30.113Z,1009.6
2015-11-10T08:16:29.848Z,1009.7
2015-11-10T08:17:29.803Z,1009.6
2015-11-10T08:18:29.945Z,1009.5
2015-11-10T08:19:29.915Z,1009.6
2015-11-10T08:20:29.634Z,1009.5
2015-11-10T08:21:29.825Z,1009.6
2015-11-10T08:22:29.544Z,1009.6
2015-11-10T08:23:29.485Z,1009.6
2015-11-10T08:24:29.424Z,1009.6
2015-11-10T08:25:29.584Z,1009.4
2015-11-10T08:26:29.571Z,1009.5
2015-11-10T08:27:29.480Z,1009.6
2015-11-10T08:28:29.435Z,1009.5
2015-11-10T08:29:29.017Z,1009.3
2015-11-10T08:30:29.128Z,1009.4
2015-11-10T08:31:29.084Z,1009.4
2015-11-10T08:32:29.025Z,1009.2
2015-11-10T08:33:29.198Z,1009.4
2015-11-10T08:34:28.920Z,1009.4
2015-11-10T08:35:28.892Z,1009.4
2015-11-10T08:36:28.832Z,1009.4
2015-11-10T08:37:28.773Z,1009.4
2015-11-10T08:38:28.745Z,1009.4
2015-11-10T08:39:28.669Z,1009.4
2015-11-10T08:40:28.843Z,1009.4
2015-11-10T08:41:28.581Z,1009.4
2015-11-10T08:42:28.521Z,1009.3
2015-11-10T08:43:28.461Z,1009.4
2015-11-10T08:44:28.416Z,1009.4
2015-11-10T08:45:27.606Z,1009.4
2015-11-10T08:46:28.516Z,1009.5
2015-11-10T08:47:28.253Z,1009.5
2015-11-10T08:48:28.209Z,1009.2
2015-11-10T08:49:28.150Z,1009.5
2015-11-10T08:50:28.105Z,1009.3
2015-11-10T08:51:27.905Z,1009.5
2015-11-10T08:52:28.048Z,1009.4
2015-11-10T08:53:27.972Z,1009.4
2015-11-10T08:54:27.913Z,1009.5
2015-11-10T08:55:27.853Z,1009.4
2015-11-10T08:56:28.027Z,1009.4
2015-11-10T08:57:28.000Z,1009.5
2015-11-10T08:58:27.706Z,1009.5
2015-11-10T08:59:27.661Z,1009.5
2015-11-10T09:00:27.617Z,1009.6
2015-11-10T09:01:27.558Z,1009.5
2015-11-10T09:02:27.513Z,1009.4
2015-11-10T09:03:27.500Z,1009.5
2015-11-10T09:04:27.628Z,1009.4
2015-11-10T09:05:27.349Z,1009.4
2015-11-10T09:06:27.305Z,1009.4
2015-11-10T09:07:27.260Z,1009.5
2015-11-10T09:08:27.201Z,1009.4
2015-11-10T09:09:27.141Z,1009.4
2015-11-10T09:10:27.082Z,1009.5
2015-11-10T09:11:27.069Z,1009.5
2015-11-10T09:12:27.009Z,1009.5
2015-11-10T09:13:26.948Z,1009.5
2015-11-10T09:14:26.905Z,1009.4
2015-11-10T09:15:26.830Z,1009.4
2015-11-10T09:16:26.785Z,1009.6
2015-11-10T09:17:26.725Z,1009.6
2015-11-10T09:18:26.681Z,1009.3
2015-11-10T09:19:26.840Z,1009.5
2015-11-10T09:20:26.827Z,1009.7
2015-11-10T09:21:26.533Z,1009.6
2015-11-10T09:22:25.754Z,1009.5
2015-11-10T09:23:26.429Z,1009.4
2015-11-10T09:24:26.385Z,1009.6
2015-11-10T09:25:26.326Z,1009.6
2015-11-10T09:26:26.281Z,1009.5
2015-11-10T09:27:26.221Z,1009.7
2015-11-10T09:28:26.177Z,1009.5
2015-11-10T09:29:26.133Z,1009.6
2015-11-10T09:30:26.089Z,1009.7
2015-11-10T09:31:26.045Z,1009.5
2015-11-10T09:32:25.984Z,1009.6
2015-11-10T09:33:25.922Z,1009.5
2015-11-10T09:34:25.862Z,1009.6
2015-11-10T09:35:25.819Z,1009.6
2015-11-10T09:36:25.775Z,1009.7
2015-11-10T09:37:25.714Z,1009.5
2015-11-10T09:38:25.670Z,1009.6
2015-11-10T09:39:25.611Z,1009.7
2015-11-10T09:40:25.567Z,1009.7
2015-11-10T09:41:25.522Z,1009.5
2015-11-10T09:42:25.478Z,1009.6
2015-11-10T09:43:25.623Z,1009.5
2015-11-10T09:44:25.375Z,1009.6
2015-11-10T09:45:25.315Z,1009.6
2015-11-10T09:46:25.506Z,1009.7
2015-11-10T09:47:25.228Z,1009.5
2015-11-10T09:48:25.199Z,1009.6
2015-11-10T09:49:25.123Z,1009.5
2015-11-10T09:50:25.064Z,1009.5
2015-11-10T09:51:25.020Z,1009.5
2015-11-10T09:52:25.022Z,1009.5
2015-11-10T09:53:24.993Z,1009.6
2015-11-10T09:54:24.871Z,1009.7
2015-11-10T09:55:24.812Z,1009.7
2015-11-10T09:56:24.752Z,1009.5
2015-11-10T09:57:24.708Z,1009.6
2015-11-10T09:58:24.866Z,1009.6
2015-11-10T09:59:24.806Z,1009.7
2015-11-10T10:00:24.559Z,1009.8
2015-11-10T10:01:24.515Z,1009.7
2015-11-10T10:02:24.486Z,1009.7
2015-11-10T10:03:24.411Z,1009.7
2015-11-10T10:04:24.352Z,1009.6
2015-11-10T10:05:24.323Z,1009.7
2015-11-10T10:06:24.263Z,1009.7
2015-11-10T10:07:24.203Z,1009.7
2015-11-10T10:08:24.160Z,1009.8
2015-11-10T10:09:24.099Z,1009.7
2015-11-10T10:10:24.102Z,1009.8
2015-11-10T10:11:24.027Z,1009.8
2015-11-10T10:12:23.951Z,1009.8
2015-11-10T10:13:24.017Z,1009.8
2015-11-10T10:14:23.862Z,1009.8
2015-11-10T10:15:23.803Z,1009.9
2015-11-10T10:16:23.744Z,1009.8
2015-11-10T10:17:23.699Z,1009.8
2015-11-10T10:18:23.655Z,1009.8
2015-11-10T10:19:23.595Z,1009.8
2015-11-10T10:20:23.551Z,1009.7
2015-11-10T10:21:23.570Z,1009.7
2015-11-10T10:22:23.479Z,1009.7
2015-11-10T10:23:23.404Z,1009.7
2015-11-10T10:24:23.359Z,1009.7
2015-11-10T10:25:23.299Z,1009.7
2015-11-10T10:26:23.442Z,1009.7
2015-11-10T10:27:23.195Z,1009.6
2015-11-10T10:28:23.370Z,1009.7
2015-11-10T10:29:23.092Z,1009.7
2015-11-10T10:30:23.047Z,1009.6
2015-11-10T10:31:23.237Z,1009.6
2015-11-10T10:32:22.943Z,1009.6
2015-11-10T10:33:22.898Z,1009.6
2015-11-10T10:34:22.839Z,1009.7
2015-11-10T10:35:22.983Z,1009.5
2015-11-10T10:36:22.001Z,1009.5
2015-11-10T10:37:22.692Z,1009.5
2015-11-10T10:38:22.648Z,1009.5
2015-11-10T10:39:22.650Z,1009.6
2015-11-10T10:40:22.542Z,1009.3
2015-11-10T10:41:22.499Z,1009.5
2015-11-10T10:42:22.439Z,1009.3
2015-11-10T10:43:22.395Z,1009.4
2015-11-10T10:44:22.335Z,1009.3
2015-11-10T10:45:22.307Z,1009.3
2015-11-10T10:46:22.247Z,1009.3
2015-11-10T10:47:22.203Z,1009.3
2015-11-10T10:48:22.394Z,1009.3
2015-11-10T10:49:22.099Z,1009.3
2015-11-10T10:50:22.102Z,1009.3
2015-11-10T10:51:22.008Z,1009.2
2015-11-10T10:52:21.948Z,1009.3
2015-11-10T10:53:21.888Z,1009.5
2015-11-10T10:54:22.047Z,1009.4
2015-11-10T10:55:21.785Z,1009.3
2015-11-10T10:56:21.741Z,1009.5
2015-11-10T10:57:21.899Z,1009.5
2015-11-10T10:58:21.636Z,1009.4
2015-11-10T10:59:21.591Z,1009.4
2015-11-10T11:00:21.548Z,1009.3
2015-11-10T11:01:21.503Z,1009.5
2015-11-10T11:02:21.490Z,1009.5
2015-11-10T11:03:21.399Z,1009.5
2015-11-10T11:04:21.371Z,1009.5
2015-11-10T11:05:21.311Z,1009.6
2015-11-10T11:06:21.251Z,1009.5
2015-11-10T11:07:21.207Z,1009.5
2015-11-10T11:08:21.148Z,1009.6
2015-11-10T11:09:21.087Z,1009.4
2015-11-10T11:10:21.076Z,1009.4
2015-11-10T11:11:20.999Z,1009.7
2015-11-10T11:12:20.956Z,1009.4
2015-11-10T11:13:20.926Z,1009.5
2015-11-10T11:14:20.851Z,1009.6
2015-11-10T11:15:20.823Z,1009.5
2015-11-10T11:16:20.763Z,1009.6
2015-11-10T11:17:20.687Z,1009.6
2015-11-10T11:18:20.643Z,1009.5
2015-11-10T11:19:20.599Z,1009.6
2015-11-10T11:20:20.570Z,1009.6
2015-11-10T11:21:20.495Z,1009.6
2015-11-10T11:22:20.451Z,1009.7
2015-11-10T11:23:20.391Z,1009.8
2015-11-10T11:24:20.363Z,1009.9
2015-11-10T11:25:20.302Z,1009.8
2015-11-10T11:26:20.243Z,1009.8
2015-11-10T11:27:20.183Z,1009.7
2015-11-10T11:28:20.155Z,1009.8
2015-11-10T11:29:20.095Z,1009.8
2015-11-10T11:30:20.050Z,1009.8
2015-11-10T11:31:20.428Z,1009.8
2015-11-10T11:32:19.931Z,1010
2015-11-10T11:33:19.902Z,1009.7
2015-11-10T11:34:19.843Z,1009.8
2015-11-10T11:35:19.798Z,1009.8
2015-11-10T11:36:19.738Z,1009.7
2015-11-10T11:37:19.741Z,1009.8
2015-11-10T11:38:19.885Z,1009.7
2015-11-10T11:39:19.606Z,1009.8
2015-11-10T11:40:19.577Z,1009.6
2015-11-10T11:41:19.487Z,1009.7
2015-11-10T11:42:19.645Z,1009.6
2015-11-10T11:43:19.398Z,1009.8
2015-11-10T11:44:19.337Z,1009.8
2015-11-10T11:45:19.294Z,1009.8
2015-11-10T11:46:19.484Z,1009.6
2015-11-10T11:47:19.206Z,1009.8
2015-11-10T11:48:19.161Z,1009.7
2015-11-10T11:49:19.101Z,1009.7
2015-11-10T11:50:19.104Z,1009.8
2015-11-10T11:51:19.014Z,1009.6
2015-11-10T11:52:18.938Z,1009.7
2015-11-10T11:53:18.894Z,1009.5
2015-11-10T11:54:18.834Z,1009.6
2015-11-10T11:55:18.650Z,1009.5
2015-11-10T11:56:18.792Z,1009.4
2015-11-10T11:57:18.764Z,1009.4
2015-11-10T11:58:18.658Z,1009.5
2015-11-10T11:59:17.832Z,1009.5
2015-11-10T12:00:18.538Z,1009.4
2015-11-10T12:01:18.494Z,1009.4
2015-11-10T12:02:18.433Z,1009.4
2015-11-10T12:03:18.406Z,1009.3
2015-11-10T12:04:18.346Z,1009.3
2015-11-10T12:05:18.285Z,1009.3
2015-11-10T12:06:18.242Z,1009
2015-11-10T12:07:18.260Z,1009.2
2015-11-10T12:08:18.138Z,1009.2
2015-11-10T12:09:17.254Z,1009.1
2015-11-10T12:10:18.053Z,1009
2015-11-10T12:11:18.009Z,1009.2
2015-11-10T12:12:17.934Z,1009.1
2015-11-10T12:13:17.890Z,1009.1
2015-11-10T12:14:17.831Z,1009.2
2015-11-10T12:15:17.786Z,1009.2
2015-11-10T12:16:17.742Z,1009.3
2015-11-10T12:17:17.681Z,1009.2
2015-11-10T12:18:17.684Z,1009.2
2015-11-10T12:19:17.578Z,1009.2
2015-11-10T12:20:17.565Z,1009.2
2015-11-10T12:21:17.692Z,1009.1
2015-11-10T12:22:17.445Z,1009.2
2015-11-10T12:23:17.386Z,1009.1
2015-11-10T12:24:17.575Z,1009
2015-11-10T12:25:17.531Z,1009
2015-11-10T12:26:17.238Z,1009
2015-11-10T12:27:17.208Z,1009
2015-11-10T12:28:17.149Z,1009
2015-11-10T12:29:17.105Z,1009.1
2015-11-10T12:30:17.045Z,1009.1
2015-11-10T12:31:17.032Z,1009.1
2015-11-10T12:32:16.941Z,1009.2
2015-11-10T12:33:16.913Z,1009.1
2015-11-10T12:34:16.852Z,1009.1